Time;durP1;ratioP1;P1;durP2;ratioP2;P2;SDS_P1;SDS_P2;PMS_P1;PMS_P2;Temp;Humidity;BMP_temperature;BMP_pressure;BME280_temperature;BME280_humidity;BME280_pressure;Samples;Min_cycle;Max_cycle;Signal;HPM_P1;HPM_P2
2022/05/23 00:01:04;;;;;;;;;9.25;9.25;;;;;15.66;61.38;99149.78;5055692;28;8848;-63
2022/05/23 00:03:32;;;;;;;;;9.00;7.00;;;;;15.59;61.30;99150.63;5056870;28;8849;-63
2022/05/23 00:06:00;;;;;;;;;10.00;8.00;;;;;15.51;61.36;99159.56;5056622;28;8917;-63
2022/05/23 00:08:28;;;;;;;;;11.75;9.00;;;;;15.45;61.99;99152.19;5056940;28;8846;-63
2022/05/23 00:10:56;;;;;;;;;9.50;8.75;;;;;15.45;62.10;99157.56;5056768;28;8848;-63
2022/05/23 00:13:24;;;;;;;;;8.50;8.50;;;;;15.48;61.51;99153.72;5057098;28;9497;-63
2022/05/23 00:15:51;;;;;;;;;6.75;6.00;;;;;15.53;61.51;99145.97;5056790;28;8977;-63
2022/05/23 00:18:19;;;;;;;;;11.50;10.00;;;;;15.56;61.35;99149.13;5036586;28;9498;-63
2022/05/23 00:20:47;;;;;;;;;9.00;9.00;;;;;15.61;61.19;99146.78;5036842;28;9597;-63
2022/05/23 00:23:15;;;;;;;;;10.00;8.75;;;;;15.66;61.46;99146.25;5036686;28;8859;-64
2022/05/23 00:25:42;;;;;;;;;9.00;7.00;;;;;15.69;61.37;99140.56;5036588;28;8860;-64
2022/05/23 00:28:10;;;;;;;;;11.00;11.00;;;;;15.71;61.07;99133.16;5041612;28;8848;-64
2022/05/23 00:30:38;;;;;;;;;10.00;9.75;;;;;15.70;61.38;99136.84;5056073;28;8853;-64
2022/05/23 00:35:51;;;;;;;;;10.00;10.00;;;;;15.67;61.58;99123.75;5036189;28;8844;-64
2022/05/23 00:38:19;;;;;;;;;11.00;9.75;;;;;15.67;61.16;99121.94;5035827;28;8855;-64
2022/05/23 00:40:47;;;;;;;;;9.50;9.50;;;;;15.69;61.49;99117.22;5036049;28;8859;-64
2022/05/23 00:43:13;;;;;;;;;4.75;4.50;;;;;15.71;61.09;99123.25;5036600;28;9526;-64
2022/05/23 00:45:41;;;;;;;;;9.00;9.00;;;;;15.74;60.89;99133.66;5036569;28;8871;-64
2022/05/23 00:48:09;;;;;;;;;10.00;10.00;;;;;15.76;61.11;99139.69;5035725;28;8844;-64
2022/05/23 00:50:37;;;;;;;;;7.50;7.50;;;;;15.78;60.99;99139.50;5036056;28;8844;-65
2022/05/23 00:53:05;;;;;;;;;9.25;8.00;;;;;15.78;61.05;99140.31;5035993;28;8832;-64
2022/05/23 00:55:33;;;;;;;;;8.25;7.50;;;;;15.79;61.28;99138.50;5035693;28;8833;-64
2022/05/23 00:58:00;;;;;;;;;8.00;8.00;;;;;15.77;61.17;99129.78;5038550;28;8854;-64
2022/05/23 01:00:28;;;;;;;;;11.50;11.00;;;;;15.75;61.00;99135.31;5055811;28;8846;-64
2022/05/23 01:02:55;;;;;;;;;6.25;6.25;;;;;15.74;61.39;99133.66;5056102;28;8868;-64
2022/05/23 01:05:24;;;;;;;;;7.00;7.00;;;;;15.75;61.23;99123.72;5055355;28;8842;-64
2022/05/23 01:07:51;;;;;;;;;11.75;10.75;;;;;15.79;61.07;99127.75;5055483;28;8826;-65
2022/05/23 01:10:19;;;;;;;;;7.50;7.50;;;;;15.82;61.27;99125.56;5056079;28;8831;-64
2022/05/23 01:12:46;;;;;;;;;6.25;6.25;;;;;15.85;61.21;99122.50;5055643;28;8859;-64
2022/05/23 01:15:14;;;;;;;;;9.25;9.25;;;;;15.88;60.35;99118.63;5055243;28;8850;-64
2022/05/23 01:17:42;;;;;;;;;9.25;8.50;;;;;15.91;61.35;99115.63;5055808;28;8860;-64
2022/05/23 01:20:10;;;;;;;;;11.75;10.25;;;;;15.94;61.08;99115.25;5055585;28;9523;-65
2022/05/23 01:22:38;;;;;;;;;8.50;7.50;;;;;15.96;61.13;99113.22;5055348;28;8842;-64
2022/05/23 01:25:05;;;;;;;;;12.00;9.00;;;;;15.96;61.10;99103.34;5055171;28;8854;-64
2022/05/23 01:27:33;;;;;;;;;9.00;9.00;;;;;15.99;60.73;99107.53;5055239;28;8839;-65
2022/05/23 01:30:01;;;;;;;;;6.25;6.25;;;;;16.00;60.84;99099.25;5036144;28;8833;-64
2022/05/23 01:32:29;;;;;;;;;13.00;10.00;;;;;16.00;60.95;99103.81;5035619;28;8848;-64
2022/05/23 01:34:56;;;;;;;;;9.25;9.25;;;;;15.98;61.11;99103.13;5035732;28;9490;-64
2022/05/23 01:37:24;;;;;;;;;9.00;8.50;;;;;15.93;60.98;99095.63;5034915;28;8854;-65
2022/05/23 01:39:52;;;;;;;;;15.00;12.75;;;;;15.87;61.04;99095.50;5035041;28;8828;-64
2022/05/23 01:42:20;;;;;;;;;13.50;12.00;;;;;15.84;61.48;99090.47;5035515;28;8982;-64
2022/05/23 01:44:47;;;;;;;;;12.00;12.00;;;;;15.80;61.42;99089.16;5036100;28;8835;-64
2022/05/23 01:47:15;;;;;;;;;3.00;1.00;;;;;15.76;61.39;99085.16;5035506;28;9735;-65
2022/05/23 01:49:43;;;;;;;;;12.75;12.50;;;;;15.75;61.57;99078.94;5035035;28;8855;-66
2022/05/23 01:52:11;;;;;;;;;9.75;9.75;;;;;15.75;61.86;99075.41;5034393;28;8858;-64
2022/05/23 01:54:38;;;;;;;;;7.00;7.00;;;;;15.79;61.85;99074.88;5035023;28;8833;-64
2022/05/23 01:57:06;;;;;;;;;9.00;8.50;;;;;15.81;61.73;99066.66;5034924;28;8843;-63
2022/05/23 02:02:19;;;;;;;;;9.25;8.75;;;;;15.83;61.38;99068.16;5055335;28;8860;-64
2022/05/23 02:04:47;;;;;;;;;9.25;9.00;;;;;15.84;61.85;99069.00;5054966;28;8846;-64
2022/05/23 02:07:15;;;;;;;;;10.50;10.00;;;;;15.85;61.58;99078.72;5054781;28;8846;-64
2022/05/23 02:09:43;;;;;;;;;11.25;8.75;;;;;15.86;61.48;99067.78;5054788;28;8830;-64
2022/05/23 02:12:11;;;;;;;;;9.50;9.50;;;;;15.88;61.31;99059.56;5054784;28;8964;-64
2022/05/23 02:14:38;;;;;;;;;11.00;11.00;;;;;15.90;61.18;99052.16;5054901;28;8960;-64
2022/05/23 02:17:06;;;;;;;;;12.50;10.00;;;;;15.93;61.59;99057.19;5055121;28;8862;-64
2022/05/23 02:19:35;;;;;;;;;11.50;9.25;;;;;15.97;61.04;99045.06;5055008;28;8834;-64
2022/05/23 02:22:04;;;;;;;;;9.00;8.50;;;;;16.00;61.45;99047.41;5054670;28;8854;-64
2022/05/23 02:24:31;;;;;;;;;10.00;9.25;;;;;16.02;61.13;99056.13;5055449;28;8858;-64
2022/05/23 02:26:59;;;;;;;;;10.00;9.25;;;;;16.03;61.07;99041.69;5058283;28;8842;-64
2022/05/23 02:29:27;;;;;;;;;9.75;7.50;;;;;16.06;61.35;99041.31;5043876;28;8858;-64
2022/05/23 02:31:55;;;;;;;;;9.25;9.00;;;;;16.07;61.21;99027.72;5038760;28;8852;-64
2022/05/23 02:34:23;;;;;;;;;13.50;12.50;;;;;16.08;61.19;99034.75;5038513;28;8947;-67
2022/05/23 02:36:51;;;;;;;;;11.50;11.00;;;;;16.10;61.81;99037.28;5038772;28;8836;-64
2022/05/23 02:39:18;;;;;;;;;10.00;9.00;;;;;16.10;61.17;99038.13;5038213;28;8844;-64
2022/05/23 02:41:46;;;;;;;;;10.00;9.25;;;;;16.12;61.41;99035.22;5038774;28;8840;-64
2022/05/23 02:44:14;;;;;;;;;5.00;5.00;;;;;16.13;61.05;99028.84;5037886;28;8856;-64
2022/05/23 02:46:42;;;;;;;;;9.50;9.50;;;;;16.13;61.32;99032.38;5037975;28;8840;-64
2022/05/23 02:49:10;;;;;;;;;12.75;12.00;;;;;16.15;61.28;99026.84;5037493;28;8836;-65
2022/05/23 02:51:38;;;;;;;;;9.50;9.50;;;;;16.17;60.85;99022.09;5038120;28;8828;-63
2022/05/23 02:54:06;;;;;;;;;6.00;6.00;;;;;16.18;60.95;99014.69;5037934;28;8836;-64
2022/05/23 02:56:34;;;;;;;;;9.00;8.00;;;;;16.20;61.01;99009.97;5038026;28;8833;-64
2022/05/23 02:59:02;;;;;;;;;8.00;7.00;;;;;16.23;61.23;99007.97;5048395;28;8972;-63
2022/05/23 03:01:30;;;;;;;;;9.50;9.00;;;;;16.23;61.28;99001.56;5057390;28;8852;-63
2022/05/23 03:03:56;;;;;;;;;11.00;10.00;;;;;16.25;61.33;98994.16;5058231;28;8868;-63
2022/05/23 03:06:24;;;;;;;;;9.50;9.50;;;;;16.26;61.18;98997.69;5057928;28;8842;-64
2022/05/23 03:08:52;;;;;;;;;9.25;9.25;;;;;16.26;60.91;98978.88;5058139;28;8989;-63
2022/05/23 03:11:20;;;;;;;;;9.25;8.00;;;;;16.27;61.17;98975.19;5057455;28;8904;-63
2022/05/23 03:13:47;;;;;;;;;6.50;6.50;;;;;16.29;60.88;98967.75;5057788;28;9696;-63
2022/05/23 03:16:15;;;;;;;;;7.00;7.00;;;;;16.32;60.96;98965.53;5057598;28;8839;-64
2022/05/23 03:18:43;;;;;;;;;6.25;6.25;;;;;16.39;60.73;98952.22;5057939;28;8838;-64
2022/05/23 03:21:11;;;;;;;;;6.25;6.00;;;;;16.45;60.96;98952.34;5057025;28;8854;-63
2022/05/23 03:27:02;;;;;;;;;5.00;4.50;;;;;16.59;60.30;98938.09;5057749;28;8964;-64
2022/05/23 03:29:30;;;;;;;;;6.50;6.50;;;;;16.64;60.45;98924.91;5040817;28;8901;-64
2022/05/23 03:31:58;;;;;;;;;9.00;9.00;;;;;16.71;60.26;98922.34;5056528;28;8818;-64
2022/05/23 03:34:25;;;;;;;;;9.00;7.50;;;;;16.75;60.31;98919.09;5057416;28;8834;-64
2022/05/23 03:36:53;;;;;;;;;6.25;6.00;;;;;16.81;59.97;98910.28;5057133;28;8830;-64
2022/05/23 03:39:21;;;;;;;;;5.00;5.00;;;;;16.84;59.90;98907.22;5057075;28;8960;-67
2022/05/23 03:41:48;;;;;;;;;6.00;6.00;;;;;16.86;59.90;98902.47;5057162;28;8837;-64
2022/05/23 03:44:16;;;;;;;;;3.75;3.75;;;;;16.87;59.96;98898.75;5057527;28;8876;-64
2022/05/23 03:46:44;;;;;;;;;7.75;7.75;;;;;16.89;59.71;98894.06;5057217;28;8830;-64
2022/05/23 03:49:11;;;;;;;;;6.00;6.00;;;;;16.91;60.08;98893.84;5057230;28;8848;-64
2022/05/23 03:51:39;;;;;;;;;4.00;4.00;;;;;16.93;59.51;98878.38;5056934;28;8949;-64
2022/05/23 03:54:07;;;;;;;;;5.20;4.40;;;;;16.95;59.60;98869.06;5057012;28;8846;-64
2022/05/23 03:56:35;;;;;;;;;7.80;7.20;;;;;16.99;59.62;98865.00;5056972;28;8837;-63
2022/05/23 03:59:04;;;;;;;;;6.20;6.20;;;;;17.02;59.72;98864.59;5043247;28;8953;-64
2022/05/23 04:01:32;;;;;;;;;5.00;5.00;;;;;17.06;59.37;98875.81;5036376;28;8848;-65
2022/05/23 04:03:59;;;;;;;;;4.00;4.00;;;;;17.07;59.88;98869.41;5036219;28;9814;-65
2022/05/23 04:06:27;;;;;;;;;4.50;4.50;;;;;17.08;59.83;98861.16;5036705;28;8848;-64
2022/05/23 04:08:55;;;;;;;;;6.20;6.20;;;;;17.11;59.09;98858.13;5036380;28;8838;-64
2022/05/23 04:11:23;;;;;;;;;7.80;7.60;;;;;17.14;59.96;98859.56;5036642;28;8890;-64
2022/05/23 04:13:56;;;;;;;;;7.00;6.00;;;;;17.17;59.35;98865.41;5036441;28;8922;-64
2022/05/23 04:16:27;;;;;;;;;6.50;6.50;;;;;17.18;59.12;98867.09;5035903;28;8918;-64
2022/05/23 04:18:55;;;;;;;;;6.00;4.80;;;;;17.21;59.55;98869.41;5035355;28;8844;-64
2022/05/23 04:21:23;;;;;;;;;5.20;4.00;;;;;17.23;58.81;98861.97;5035174;28;8970;-64
2022/05/23 04:23:51;;;;;;;;;4.00;3.00;;;;;17.26;59.71;98855.38;5035012;28;8832;-65
2022/05/23 04:26:18;;;;;;;;;7.00;7.00;;;;;17.30;58.95;98862.06;5034741;28;9553;-64
2022/05/23 04:28:46;;;;;;;;;4.00;4.00;;;;;17.33;59.35;98857.09;5046829;28;8838;-64
2022/05/23 04:31:14;;;;;;;;;4.50;4.50;;;;;17.36;59.36;98862.13;5055248;28;8846;-64
2022/05/23 04:36:28;;;;;;;;;4.00;4.00;;;;;17.44;58.91;98848.56;5056418;28;8866;-64
2022/05/23 04:38:55;;;;;;;;;7.00;6.00;;;;;17.48;58.92;98840.94;5055731;28;8912;-64
2022/05/23 04:41:23;;;;;;;;;5.60;5.60;;;;;17.53;58.59;98839.31;5056050;28;9492;-64
2022/05/23 04:43:56;;;;;;;;;2.20;1.80;;;;;17.58;58.57;98833.34;5055633;28;8850;-64
2022/05/23 04:46:23;;;;;;;;;3.60;3.60;;;;;17.63;58.66;98841.69;5048979;28;8957;-64
2022/05/23 04:51:39;;;;;;;;;6.00;6.00;;;;;17.70;58.60;98838.03;5055305;28;8976;-64
2022/05/23 04:54:07;;;;;;;;;4.00;4.00;;;;;17.75;58.34;98827.50;5054386;28;8834;-64
2022/05/23 04:56:36;;;;;;;;;4.80;4.80;;;;;17.79;58.48;98830.66;5055038;28;8850;-64
2022/05/23 04:59:04;;;;;;;;;6.20;6.20;;;;;17.84;58.32;98826.34;5054699;28;8870;-64
2022/05/23 05:01:32;;;;;;;;;6.60;5.20;;;;;17.87;57.95;98823.28;5055419;28;8848;-64
2022/05/23 05:04:00;;;;;;;;;4.40;4.00;;;;;17.92;58.22;98820.81;5054374;28;8837;-64
2022/05/23 05:06:27;;;;;;;;;6.20;6.20;;;;;17.98;58.22;98820.03;5055541;28;8860;-64
2022/05/23 05:08:55;;;;;;;;;5.20;5.20;;;;;18.03;57.93;98814.88;5037841;28;8824;-64
2022/05/23 05:11:23;;;;;;;;;6.20;5.60;;;;;18.09;58.06;98816.81;5035336;28;8836;-64
2022/05/23 05:13:51;;;;;;;;;6.40;6.40;;;;;18.12;57.53;98804.78;5034211;28;9746;-64
2022/05/23 05:16:23;;;;;;;;;5.20;5.20;;;;;18.16;57.57;98801.50;5034969;28;8836;-64
2022/05/23 05:18:55;;;;;;;;;4.00;3.60;;;;;18.20;57.98;98797.38;5034769;28;8926;-64
2022/05/23 05:21:24;;;;;;;;;4.80;4.60;;;;;18.24;57.76;98795.97;5034159;28;8859;-65
2022/05/23 05:23:52;;;;;;;;;9.40;6.60;;;;;18.30;57.27;98800.56;5034520;28;8878;-68
2022/05/23 05:26:19;;;;;;;;;5.40;4.00;;;;;18.37;57.16;98792.53;5034725;28;8849;-65
2022/05/23 05:28:47;;;;;;;;;6.00;5.60;;;;;18.42;57.30;98795.44;5035015;28;8844;-64
2022/05/23 05:31:15;;;;;;;;;7.00;5.60;;;;;18.49;57.43;98780.13;5034438;28;8967;-64
2022/05/23 05:33:43;;;;;;;;;4.00;4.00;;;;;18.56;57.14;98776.44;5034429;28;8875;-64
2022/05/23 05:36:11;;;;;;;;;6.00;5.60;;;;;18.64;56.39;98776.28;5034398;28;8839;-64
2022/05/23 05:38:38;;;;;;;;;5.80;5.80;;;;;18.74;56.86;98779.41;5047483;28;8842;-64
2022/05/23 05:41:06;;;;;;;;;6.00;5.00;;;;;18.85;56.34;98780.69;5053733;28;9733;-64
2022/05/23 05:43:34;;;;;;;;;5.80;5.00;;;;;18.97;56.36;98779.91;5054143;28;8880;-64
2022/05/23 05:46:02;;;;;;;;;5.80;5.20;;;;;19.09;56.01;98774.75;5051218;28;8916;-64
2022/05/23 05:48:40;;;;;;;;;2.80;2.80;;;;;19.21;55.94;98765.06;5052692;28;8837;-64
2022/05/23 05:51:08;;;;;;;;;5.20;4.80;;;;;19.32;55.71;98767.97;5053073;28;8826;-64
2022/05/23 05:53:36;;;;;;;;;5.40;5.20;;;;;19.40;55.36;98770.47;5053256;28;9511;-64
2022/05/23 05:56:05;;;;;;;;;6.80;6.80;;;;;19.48;55.68;98775.69;5053225;28;8922;-63
2022/05/23 05:58:32;;;;;;;;;7.80;7.00;;;;;19.52;55.30;98768.00;5053711;28;8845;-68
2022/05/23 06:01:01;;;;;;;;;5.00;4.60;;;;;19.55;55.47;98767.56;5056402;28;8850;-65
2022/05/23 06:03:28;;;;;;;;;5.80;5.00;;;;;19.58;55.27;98770.69;5057671;28;8846;-64
2022/05/23 06:11:28;;;;;;;;;5.00;5.00;;;;;19.74;54.99;98748.69;5037937;28;9479;-64
2022/05/23 06:13:56;;;;;;;;;6.20;6.20;;;;;19.79;55.29;98738.06;5037208;28;8876;-64
2022/05/23 06:16:24;;;;;;;;;7.00;5.80;;;;;19.85;55.12;98742.63;5037547;28;8958;-64
2022/05/23 06:18:54;;;;;;;;;7.00;5.40;;;;;19.92;54.96;98745.31;5037684;28;9513;-65
2022/05/23 06:21:22;;;;;;;;;4.00;4.00;;;;;19.97;54.97;98742.81;5037061;28;8860;-64
2022/05/23 06:23:49;;;;;;;;;6.60;6.60;;;;;20.00;54.97;98737.81;5036463;28;8872;-64
2022/05/23 06:26:17;;;;;;;;;3.20;3.20;;;;;20.05;54.60;98731.81;5051185;28;8869;-64
2022/05/23 06:28:45;;;;;;;;;5.80;5.40;;;;;20.09;54.87;98735.75;5057896;28;8915;-65
2022/05/23 06:31:13;;;;;;;;;6.20;4.60;;;;;20.15;54.75;98735.72;5057616;28;8853;-64
2022/05/23 06:33:41;;;;;;;;;4.20;4.20;;;;;20.21;54.37;98720.53;5057082;28;8841;-64
2022/05/23 06:36:09;;;;;;;;;7.00;5.00;;;;;20.26;54.78;98724.25;5057272;28;8866;-64
2022/05/23 06:38:37;;;;;;;;;7.00;7.00;;;;;20.31;54.11;98713.63;5056626;28;8848;-64
2022/05/23 06:41:05;;;;;;;;;1.00;1.00;;;;;20.36;54.54;98724.66;5056729;28;8982;-64
2022/05/23 06:43:33;;;;;;;;;5.00;5.00;;;;;20.44;53.96;98716.28;5056758;28;8878;-64
2022/05/23 06:46:02;;;;;;;;;5.00;5.00;;;;;20.55;53.80;98715.59;5056814;28;8874;-64
2022/05/23 06:48:29;;;;;;;;;6.60;6.20;;;;;20.65;53.45;98713.28;5056765;28;8826;-65
2022/05/23 06:50:58;;;;;;;;;7.00;7.00;;;;;20.73;53.53;98704.06;5056897;28;8806;-64
2022/05/23 06:53:25;;;;;;;;;6.60;6.60;;;;;20.85;53.86;98698.59;5057181;28;8830;-64
2022/05/23 06:55:53;;;;;;;;;7.40;7.40;;;;;20.97;53.31;98696.06;5057299;28;8928;-65
2022/05/23 06:58:21;;;;;;;;;6.60;6.20;;;;;21.07;52.98;98686.41;5057259;28;8984;-64
2022/05/23 07:00:50;;;;;;;;;5.60;4.80;;;;;21.18;53.06;98690.28;5056743;28;8972;-65
2022/05/23 07:03:18;;;;;;;;;7.20;5.80;;;;;21.30;52.62;98683.94;5056154;28;9531;-65
2022/05/23 07:14:02;;;;;;;;;8.00;5.00;;;;;21.83;51.99;98659.91;5055196;28;8846;-65
2022/05/23 07:16:30;;;;;;;;;5.80;5.60;;;;;21.94;51.44;98660.00;5055188;28;8969;-66
2022/05/23 07:18:57;;;;;;;;;5.80;5.00;;;;;22.03;51.79;98665.97;5056330;28;9640;-66
2022/05/23 07:21:26;;;;;;;;;5.40;5.40;;;;;22.13;51.43;98667.09;5055783;28;8956;-65
2022/05/23 07:23:54;;;;;;;;;6.20;5.80;;;;;22.24;51.31;98660.88;5056667;28;9519;-65
2022/05/23 07:26:22;;;;;;;;;7.60;7.20;;;;;22.34;50.67;98657.66;5055801;28;8854;-65
2022/05/23 07:28:50;;;;;;;;;8.00;8.00;;;;;22.45;51.01;98659.59;5056156;28;8854;-65
2022/05/23 07:31:17;;;;;;;;;8.60;7.40;;;;;22.54;50.97;98652.84;5056205;28;8838;-65
2022/05/23 07:33:45;;;;;;;;;8.20;7.00;;;;;22.61;50.74;98640.00;5056115;28;8834;-64
2022/05/23 07:36:13;;;;;;;;;6.80;6.80;;;;;22.67;50.79;98628.19;5056001;28;9707;-65
2022/05/23 07:38:41;;;;;;;;;8.00;5.60;;;;;22.75;50.13;98630.59;5054553;28;9095;-64
2022/05/23 07:41:09;;;;;;;;;6.80;6.80;;;;;22.86;50.13;98636.06;5054791;28;8850;-65
2022/05/23 07:43:36;;;;;;;;;8.60;7.00;;;;;23.03;50.19;98636.22;5054766;28;9020;-64
2022/05/23 07:46:09;;;;;;;;;5.20;5.00;;;;;23.20;49.52;98621.75;5055461;28;8870;-65
2022/05/23 07:48:37;;;;;;;;;5.00;5.00;;;;;23.34;49.51;98623.19;5055591;28;8842;-64
2022/05/23 07:51:05;;;;;;;;;5.00;5.00;;;;;23.45;49.65;98625.06;5041737;28;8809;-65
2022/05/23 08:01:48;;;;;;;;;6.60;5.80;;;;;23.72;49.42;98614.53;5034247;28;8940;-64
2022/05/23 08:04:16;;;;;;;;;7.20;5.20;;;;;23.72;49.23;98625.41;5033109;28;8832;-65
2022/05/23 08:06:44;;;;;;;;;6.00;6.00;;;;;23.69;48.97;98617.75;5034165;28;9564;-65
2022/05/23 08:09:12;;;;;;;;;5.60;5.60;;;;;23.68;49.01;98616.09;5033022;28;8837;-64
2022/05/23 08:11:40;;;;;;;;;10.00;9.00;;;;;23.62;49.48;98611.59;5033815;28;8848;-65
2022/05/23 08:14:07;;;;;;;;;5.80;5.80;;;;;23.59;49.28;98612.09;5033169;28;8867;-64
2022/05/23 08:16:36;;;;;;;;;6.40;6.00;;;;;23.54;49.34;98610.09;5045175;28;8826;-64
2022/05/23 08:19:04;;;;;;;;;9.20;8.60;;;;;23.56;48.99;98604.41;5054034;28;8840;-65
2022/05/23 08:21:32;;;;;;;;;10.20;8.20;;;;;23.56;49.54;98599.81;5053422;28;8879;-65
2022/05/23 08:23:59;;;;;;;;;5.40;5.00;;;;;23.59;49.69;98601.22;5053050;28;8868;-65
2022/05/23 08:26:27;;;;;;;;;7.20;6.80;;;;;23.64;49.48;98602.16;5054184;28;8964;-64
2022/05/23 08:28:55;;;;;;;;;5.20;5.00;;;;;23.65;48.71;98592.94;5042152;28;8860;-65
2022/05/23 08:31:23;;;;;;;;;8.80;7.00;;;;;23.63;48.93;98594.22;5034984;28;8910;-64
2022/05/23 08:33:51;;;;;;;;;7.20;6.00;;;;;23.58;49.18;98602.28;5034048;28;8849;-64
2022/05/23 08:36:19;;;;;;;;;6.20;6.00;;;;;23.62;48.84;98606.16;5054366;28;8945;-64
2022/05/23 08:38:47;;;;;;;;;6.00;5.60;;;;;23.65;49.12;98600.25;5040000;28;8829;-64
2022/05/23 08:41:15;;;;;;;;;11.00;7.40;;;;;23.67;48.74;98598.94;5044727;28;8904;-64
2022/05/23 08:43:43;;;;;;;;;5.40;5.40;;;;;23.66;48.76;98600.03;5032411;28;8946;-65
2022/05/23 08:46:10;;;;;;;;;7.00;6.00;;;;;23.72;49.14;98598.22;5033675;28;8827;-65
2022/05/23 08:48:38;;;;;;;;;6.80;6.40;;;;;23.78;48.30;98597.28;5034006;28;8858;-64
2022/05/23 08:51:10;;;;;;;;;7.80;7.40;;;;;23.83;48.45;98591.97;5034028;28;8855;-64
2022/05/23 08:53:38;;;;;;;;;6.60;6.60;;;;;23.88;48.32;98587.50;5034051;28;8836;-65
2022/05/23 08:56:05;;;;;;;;;6.00;5.80;;;;;23.86;47.96;98600.50;5032900;28;8860;-64
2022/05/23 08:58:34;;;;;;;;;7.80;7.00;;;;;23.81;48.71;98591.38;5033167;28;8980;-64
2022/05/23 09:01:06;;;;;;;;;7.20;6.60;;;;;23.83;48.16;98597.41;5033109;28;8837;-64
2022/05/23 09:03:34;;;;;;;;;7.20;7.20;;;;;23.78;48.43;98587.25;5032256;28;9832;-65
2022/05/23 09:06:02;;;;;;;;;8.20;7.20;;;;;23.78;48.92;98581.81;5032098;28;8929;-67
2022/05/23 09:08:37;;;;;;;;;6.40;5.80;;;;;23.90;48.13;98571.75;5032860;28;8840;-65
2022/05/23 09:11:05;;;;;;;;;7.40;7.40;;;;;24.01;48.28;98567.34;5032916;28;8845;-65
2022/05/23 09:13:32;;;;;;;;;6.60;6.60;;;;;24.17;47.77;98563.84;5047914;28;8861;-65
2022/05/23 09:16:04;;;;;;;;;7.40;7.40;;;;;24.41;47.52;98566.25;5042716;28;8829;-65
2022/05/23 09:18:32;;;;;;;;;8.60;7.80;;;;;24.63;47.17;98566.41;5032377;28;8875;-64
2022/05/23 09:21:00;;;;;;;;;9.00;9.00;;;;;24.82;47.05;98560.50;5047109;28;8951;-65
2022/05/23 09:23:28;;;;;;;;;9.60;9.00;;;;;24.99;46.83;98550.44;5052650;28;8989;-65
2022/05/23 09:25:57;;;;;;;;;8.40;8.40;;;;;25.24;46.46;98550.88;5052939;28;8858;-65
2022/05/23 09:28:25;;;;;;;;;6.00;6.00;;;;;25.46;45.53;98551.75;5053181;28;8858;-66
2022/05/23 09:31:00;;;;;;;;;7.80;7.00;;;;;25.74;44.98;98557.06;5053527;28;8881;-68
2022/05/23 09:33:28;;;;;;;;;7.00;7.00;;;;;25.83;45.19;98550.09;5037786;28;9636;-65
2022/05/23 09:35:55;;;;;;;;;7.60;7.00;;;;;25.76;45.08;98544.81;5036998;28;8970;-65
2022/05/23 09:38:25;;;;;;;;;5.40;5.40;;;;;25.63;45.28;98540.81;5037838;28;8882;-65
2022/05/23 09:40:52;;;;;;;;;8.00;7.40;;;;;25.40;46.19;98532.84;5037998;28;8974;-65
2022/05/23 09:48:54;;;;;;;;;7.00;6.00;;;;;25.27;46.58;98516.84;5054823;28;8852;-65
2022/05/23 09:51:22;;;;;;;;;6.00;6.00;;;;;25.45;45.79;98508.34;5056541;28;8870;-65
2022/05/23 09:53:52;;;;;;;;;7.00;7.00;;;;;25.87;44.79;98496.63;5056633;28;9706;-65
2022/05/23 09:56:20;;;;;;;;;7.20;6.00;;;;;26.33;44.08;98499.66;5056912;28;8846;-65
2022/05/23 09:58:48;;;;;;;;;6.00;6.00;;;;;26.83;43.82;98494.69;5057502;28;8865;-66
2022/05/23 10:01:19;;;;;;;;;6.40;6.40;;;;;27.07;43.07;98498.69;5053969;28;8997;-64
2022/05/23 10:03:46;;;;;;;;;3.40;3.20;;;;;27.11;43.42;98499.84;5045905;28;8828;-65
2022/05/23 10:06:14;;;;;;;;;7.00;6.60;;;;;27.25;42.69;98495.56;5036706;28;8966;-65
2022/05/23 10:08:43;;;;;;;;;7.00;6.60;;;;;27.41;42.48;98489.13;5036020;28;8848;-66
2022/05/23 10:11:11;;;;;;;;;4.80;4.00;;;;;27.86;42.71;98475.66;5035410;28;8979;-65
2022/05/23 10:13:39;;;;;;;;;6.00;5.20;;;;;28.50;41.69;98478.84;5036761;28;8852;-65
2022/05/23 10:16:06;;;;;;;;;5.20;5.20;;;;;28.97;41.30;98477.53;5036355;28;9506;-66
2022/05/23 10:18:35;;;;;;;;;6.60;5.80;;;;;29.09;40.65;98483.56;5036801;28;8926;-65
2022/05/23 10:21:02;;;;;;;;;5.20;5.00;;;;;29.27;40.29;98472.00;5036105;28;8986;-65
2022/05/23 10:23:30;;;;;;;;;7.80;5.80;;;;;29.21;40.80;98477.78;5035164;28;8868;-65
2022/05/23 10:25:59;;;;;;;;;5.40;5.40;;;;;29.00;40.55;98468.78;5035119;28;8844;-71
2022/05/23 10:28:27;;;;;;;;;5.00;5.00;;;;;28.85;41.31;98467.91;5034707;28;8840;-65
2022/05/23 10:30:54;;;;;;;;;6.80;5.00;;;;;29.12;40.85;98455.56;5035016;28;8833;-66
2022/05/23 10:33:22;;;;;;;;;5.00;4.80;;;;;29.40;40.41;98449.50;5040983;28;8937;-65
2022/05/23 10:35:50;;;;;;;;;7.20;5.20;;;;;29.63;39.95;98440.66;5045824;28;8910;-65
2022/05/23 10:43:49;;;;;;;;;4.80;4.80;;;;;29.95;39.77;98432.81;5039502;28;8873;-64
2022/05/23 10:46:17;;;;;;;;;4.00;4.00;;;;;30.05;39.07;98427.28;5055356;28;8848;-66
2022/05/23 10:48:45;;;;;;;;;2.80;2.00;;;;;30.13;39.52;98415.72;5055989;28;8850;-64
2022/05/23 10:51:14;;;;;;;;;3.60;3.60;;;;;30.37;38.49;98410.31;5056552;28;8834;-65
2022/05/23 10:53:42;;;;;;;;;2.00;2.00;;;;;30.53;38.16;98415.41;5055098;28;8838;-65
2022/05/23 10:56:10;;;;;;;;;3.00;3.00;;;;;30.53;37.96;98409.91;5054414;28;8869;-65
2022/05/23 10:58:40;;;;;;;;;5.00;4.00;;;;;30.68;37.50;98415.31;5055037;28;8949;-65
2022/05/23 11:01:08;;;;;;;;;3.00;3.00;;;;;30.37;38.06;98422.13;5055598;28;8900;-65
2022/05/23 11:03:36;;;;;;;;;4.00;3.80;;;;;29.88;38.66;98407.56;5055047;28;8838;-65
2022/05/23 11:06:04;;;;;;;;;3.60;3.00;;;;;30.20;37.92;98399.72;5054826;28;8866;-64
2022/05/23 11:08:32;;;;;;;;;3.60;3.60;;;;;30.72;37.27;98394.38;5053975;28;8976;-66
2022/05/23 11:10:59;;;;;;;;;1.80;1.80;;;;;31.08;36.78;98384.66;5053674;28;8939;-66
2022/05/23 11:13:27;;;;;;;;;4.00;4.00;;;;;31.23;36.75;98385.34;5045180;28;8979;-66
2022/05/23 11:15:55;;;;;;;;;3.40;3.40;;;;;31.20;36.85;98382.34;5033879;28;8842;-65
2022/05/23 11:18:23;;;;;;;;;4.40;4.20;;;;;31.30;36.87;98376.72;5033575;28;9586;-65
2022/05/23 11:20:51;;;;;;;;;3.00;3.00;;;;;31.38;36.41;98373.31;5033275;28;8865;-65
2022/05/23 11:23:18;;;;;;;;;1.80;1.80;;;;;31.51;35.96;98350.59;5034241;28;9501;-65
2022/05/23 11:25:46;;;;;;;;;3.60;3.60;;;;;31.79;35.41;98344.19;5034184;28;9490;-65
2022/05/23 11:33:50;;;;;;;;;3.80;3.80;;;;;32.53;33.78;98341.38;5054088;28;8885;-65
2022/05/23 11:36:23;;;;;;;;;2.20;2.00;;;;;32.52;34.45;98334.19;5054145;28;8850;-66
2022/05/23 11:38:51;;;;;;;;;3.80;3.60;;;;;32.36;34.70;98330.06;5054773;28;8867;-65
2022/05/23 11:41:19;;;;;;;;;2.20;1.80;;;;;32.29;34.81;98324.97;5055900;28;8954;-65
2022/05/23 11:43:46;;;;;;;;;3.00;3.00;;;;;32.11;34.92;98317.50;5054978;28;8862;-65
2022/05/23 11:46:15;;;;;;;;;1.40;1.40;;;;;31.70;35.45;98310.13;5055528;28;8972;-67
2022/05/23 11:48:43;;;;;;;;;4.00;4.00;;;;;31.42;35.64;98313.84;5055548;28;9769;-65
2022/05/23 11:51:11;;;;;;;;;5.00;4.00;;;;;31.52;35.07;98305.44;5034849;28;8871;-65
2022/05/23 11:53:40;;;;;;;;;4.00;3.40;;;;;31.82;34.83;98299.50;5035877;28;8848;-65
2022/05/23 11:56:08;;;;;;;;;4.40;4.20;;;;;32.21;34.46;98294.47;5035273;28;8971;-64
2022/05/23 11:58:37;;;;;;;;;0.40;0.40;;;;;32.45;34.07;98295.16;5035460;28;9536;-65
2022/05/23 12:01:05;;;;;;;;;2.60;2.00;;;;;32.63;34.28;98286.03;5035301;28;8955;-65
2022/05/23 12:03:32;;;;;;;;;4.60;4.60;;;;;32.91;33.49;98284.97;5034983;28;8976;-64
2022/05/23 12:06:02;;;;;;;;;4.80;4.40;;;;;33.16;33.55;98271.44;5034838;28;8844;-65
2022/05/23 12:08:31;;;;;;;;;4.20;4.20;;;;;33.04;33.61;98270.34;5033866;28;9025;-65
2022/05/23 12:11:00;;;;;;;;;6.20;6.00;;;;;32.81;34.27;98282.41;5034544;28;8840;-65
2022/05/23 12:13:28;;;;;;;;;3.80;3.80;;;;;32.55;34.81;98275.69;5034364;28;8845;-65
2022/05/23 12:15:56;;;;;;;;;5.40;5.40;;;;;32.18;35.03;98273.81;5034262;28;8984;-67
2022/05/23 12:18:25;;;;;;;;;5.40;5.00;;;;;31.82;35.69;98271.97;5034999;28;8840;-65
2022/05/23 12:20:52;;;;;;;;;4.00;4.00;;;;;31.74;35.69;98273.47;5034509;28;8974;-65
2022/05/23 12:23:20;;;;;;;;;5.60;5.00;;;;;31.79;35.93;98269.81;5034577;28;8840;-65
2022/05/23 12:25:48;;;;;;;;;4.00;4.00;;;;;32.01;35.66;98267.25;5033793;28;8902;-65
2022/05/23 12:28:16;;;;;;;;;7.00;6.20;;;;;32.09;35.11;98263.81;5033008;28;8994;-65
2022/05/23 12:30:44;;;;;;;;;6.00;5.80;;;;;32.18;34.67;98262.00;5033124;28;9017;-66
2022/05/23 12:33:12;;;;;;;;;5.60;5.60;;;;;32.24;34.74;98261.63;5032844;28;8836;-65
2022/05/23 12:35:44;;;;;;;;;4.00;4.00;;;;;32.08;35.58;98256.69;5033221;28;8840;-65